Key West, FL

9:00 AM EST on February 07, 2016 (GMT -0500)
Flagler and Leon | | Change Station
CLOSE
Current Station
Personal Weather Station
Location: Key West, FL
Elevation: 7 ft
Nearby Weather Stations

Elev 7 ft 24.55 °N, 81.78 °W | Updated 11 seconds ago

Clear
Clear
59.2 °F
Feels Like 59.2 °F
N
0.0
Wind Variable Wind from SSW
Gusts 0.0 mph

Today
High -- | Low -- °F
--% Chance of Precip.
Yesterday
High -- | Low -- °F
Precip. -- in
Pressure 30.08 in
Visibility 10.0 miles
Clouds Few 2600 ft
Scattered Clouds 3000 ft
Overcast 4700 ft
Dew Point 58 °F
Humidity 94%
Rainfall 0.00 in
Snow Depth Not available.
7:06 AM 6:16 PM
Waning Crescent, 1% visible
METAR KEYW 071353Z 34020G31KT 10SM FEW026 SCT030 OVC047 15/12 A3008 RMK AO2 PK WND 35032/1259 RAE43 SLP186 P0000 T01500122
Pressure 30.08 in
Visibility 10.0 miles
Clouds Few 2600 ft
Scattered Clouds 3000 ft
Overcast 4700 ft
Dew Point 58 °F
Humidity 94%
Rainfall 0.00 in
Snow Depth Not available.
7:06 AM 6:16 PM
Waning Crescent, 1% visible
METAR KEYW 071353Z 34020G31KT 10SM FEW026 SCT030 OVC047 15/12 A3008 RMK AO2 PK WND 35032/1259 RAE43 SLP186 P0000 T01500122

10-Day Weather Forecast

Almanac

Astronomy

Feb. 07, 2016 Rise Set
Actual Time
Civil Twilight
Nautical Twilight
Astronomical Twilight
Moon
Length of Visible Light
Length of Day
Tomorrow will be .
, % of the Moon is Illuminated

Today's Extremes

State Highs State Lows

Community

WunderPhotos

Upload Photos

1,891,190 photos uploaded!

WunderBlog® & News

Nearby

Air Quality

  Air Quality AQ Index Pollutant
Not available.

Snow Depth

Station Depth Elevation

Earthquake Activity

City Distance Mag. Time & Date
Minimum magnitude displayed is 2.5.

Coastal Water Temperatures

Place Temperature

Stations

Nearby Weather Stations

Station Location Temp. Windchill Dew Point Humidity Wind Precip. Elev Updated Type
                   

Watches & Warnings

There are currently no watches in effect.